Time;durP1;ratioP1;P1;durP2;ratioP2;P2;SDS_P1;SDS_P2;PMS_P1;PMS_P2;Temp;Humidity;BMP_temperature;BMP_pressure;BME280_temperature;BME280_humidity;BME280_pressure;Samples;Min_cycle;Max_cycle;Signal;HPM_P1;HPM_P2
2021/11/02 00:01:20;;;;;;;12.93;10.27;;;;;;;11.36;85.26;99079.84;5032093;28;20514;-79
2021/11/02 00:04:05;;;;;;;12.48;8.10;;;;;;;11.24;85.56;99077.25;5034896;28;20518;-79
2021/11/02 00:06:50;;;;;;;16.45;10.52;;;;;;;11.11;85.72;99078.56;5031190;28;20044;-79
2021/11/02 00:09:40;;;;;;;16.23;10.32;;;;;;;11.07;85.97;99083.16;5025144;28;20056;-79
2021/11/02 00:12:25;;;;;;;17.58;11.25;;;;;;;11.04;85.63;99087.38;5018206;28;20060;-79
2021/11/02 00:15:12;;;;;;;10.63;9.32;;;;;;;11.02;86.06;99092.38;5025151;28;20526;-79
2021/11/02 00:18:01;;;;;;;17.17;10.27;;;;;;;10.96;85.97;99088.38;5038386;28;20060;-80
2021/11/02 00:20:46;;;;;;;16.30;11.45;;;;;;;10.97;85.97;99097.34;5028113;28;20061;-80
2021/11/02 00:23:38;;;;;;;14.00;11.35;;;;;;;10.91;86.19;99101.47;5033513;28;20124;-80
2021/11/02 00:26:23;;;;;;;18.58;12.40;;;;;;;10.86;86.06;99099.81;5037607;28;20511;-79
2021/11/02 00:29:08;;;;;;;12.93;9.52;;;;;;;10.80;86.40;99095.81;5021961;28;20068;-80
2021/11/02 00:31:53;;;;;;;16.40;12.32;;;;;;;10.80;86.15;99084.13;5015632;28;20618;-80
2021/11/02 00:34:38;;;;;;;13.50;10.25;;;;;;;10.82;85.94;99098.19;5043076;28;20052;-80
2021/11/02 00:37:24;;;;;;;13.35;10.13;;;;;;;10.83;85.93;99091.56;5053496;28;20052;-80
2021/11/02 00:40:14;;;;;;;18.92;13.13;;;;;;;10.83;85.96;99094.28;5018149;28;20414;-80
2021/11/02 00:43:01;;;;;;;17.83;12.85;;;;;;;10.71;85.63;99108.81;5025559;28;20529;-80
2021/11/02 00:45:46;;;;;;;19.60;13.52;;;;;;;10.62;86.08;99103.56;5020425;28;20479;-80
2021/11/02 00:48:31;;;;;;;18.10;10.63;;;;;;;10.59;86.14;99107.00;5029604;28;20044;-80
2021/11/02 00:51:16;;;;;;;;;;;;;;;10.66;85.91;99095.50;5020180;28;20136;-80
2021/11/02 00:54:01;;;;;;;16.45;12.45;;;;;;;10.62;85.63;99108.19;5020788;28;19913;-80
2021/11/02 00:56:46;;;;;;;17.30;13.48;;;;;;;10.64;85.66;99114.88;5007483;28;20049;-79
2021/11/02 00:59:31;;;;;;;15.48;9.93;;;;;;;10.61;85.83;99123.75;5016417;28;20053;-79
2021/11/02 01:02:18;;;;;;;14.75;11.07;;;;;;;10.62;85.35;99122.59;5006390;28;20048;-80
2021/11/02 01:05:03;;;;;;;22.88;13.15;;;;;;;10.64;84.98;99114.88;5023410;28;20064;-80
2021/11/02 01:07:48;;;;;;;18.52;13.25;;;;;;;10.56;85.02;99110.44;5025512;28;20061;-80
2021/11/02 01:10:34;;;;;;;21.65;13.85;;;;;;;10.57;84.86;99101.13;5019760;28;20057;-79
2021/11/02 01:13:19;;;;;;;16.58;12.77;;;;;;;10.54;85.10;99098.34;5023962;28;20044;-79
2021/11/02 01:16:04;;;;;;;12.73;9.40;;;;;;;10.53;85.31;99091.31;5031372;28;20517;-79
2021/11/02 01:18:48;;;;;;;12.10;9.45;;;;;;;10.48;84.87;99075.28;5035754;28;20117;-79
2021/11/02 01:21:34;;;;;;;17.95;12.23;;;;;;;10.50;84.70;99086.59;5034138;28;20561;-79
2021/11/02 01:24:21;;;;;;;14.73;9.95;;;;;;;10.48;84.61;99080.72;5038751;28;20067;-79
2021/11/02 01:27:06;;;;;;;17.42;12.80;;;;;;;10.41;84.36;99075.13;5024282;28;20109;-78
2021/11/02 01:29:52;;;;;;;17.55;11.82;;;;;;;10.43;84.36;99078.28;5038199;28;20049;-80
2021/11/02 01:32:38;;;;;;;17.48;12.02;;;;;;;10.44;84.23;99077.94;5030382;28;20056;-79
2021/11/02 01:35:23;;;;;;;16.27;11.65;;;;;;;10.44;83.91;99077.13;5043448;28;20121;-79
2021/11/02 01:38:23;;;;;;;14.48;11.57;;;;;;;10.50;83.41;99078.44;5025694;28;20049;-79
2021/11/02 01:41:09;;;;;;;13.30;10.20;;;;;;;10.58;83.49;99080.97;5034358;28;20060;-79
2021/11/02 01:43:57;;;;;;;13.68;9.68;;;;;;;10.73;83.96;99073.88;5025000;28;20044;-79
2021/11/02 01:46:44;;;;;;;14.05;9.75;;;;;;;10.61;81.87;99066.69;5015512;28;20048;-79
2021/11/02 01:49:30;;;;;;;11.95;8.55;;;;;;;10.65;82.00;99066.75;5020690;28;20044;-79
2021/11/02 01:52:15;;;;;;;10.15;6.78;;;;;;;10.72;81.27;99061.44;5036322;28;20052;-78
2021/11/02 01:55:03;;;;;;;7.40;5.15;;;;;;;10.77;80.33;99069.31;5028697;28;20041;-78
2021/11/02 01:57:51;;;;;;;8.73;5.70;;;;;;;10.77;80.24;99069.31;5020290;28;20052;-78
2021/11/02 02:00:40;;;;;;;11.20;6.95;;;;;;;10.79;80.76;99067.03;5020714;28;20045;-78
2021/11/02 02:03:52;;;;;;;9.70;7.35;;;;;;;10.84;81.25;99068.69;5017953;28;20430;-78
2021/11/02 02:06:57;;;;;;;10.35;7.35;;;;;;;10.82;81.37;99069.03;5026099;28;20052;-78
2021/11/02 02:09:49;;;;;;;11.15;7.50;;;;;;;10.84;80.81;99061.31;5008258;28;20058;-79
2021/11/02 02:12:42;;;;;;;10.15;7.13;;;;;;;10.89;80.40;99060.25;5033365;28;20427;-78
2021/11/02 02:15:58;;;;;;;9.82;6.40;;;;;;;10.94;80.07;99052.59;5033219;28;20057;-79
2021/11/02 02:18:55;;;;;;;9.80;6.60;;;;;;;10.97;79.71;99054.56;5020798;28;20054;-78
2021/11/02 02:21:49;;;;;;;12.45;7.97;;;;;;;10.87;79.91;99046.22;5013753;28;20423;-78
2021/11/02 02:24:39;;;;;;;9.50;7.05;;;;;;;10.85;80.23;99043.06;5024398;28;20099;-79
2021/11/02 02:27:41;;;;;;;12.52;8.00;;;;;;;10.81;80.33;99047.66;5023859;28;20040;-79
2021/11/02 02:30:30;;;;;;;14.52;8.70;;;;;;;10.79;80.58;99049.94;5034905;28;20048;-79
2021/11/02 02:33:17;;;;;;;13.95;10.23;;;;;;;10.66;80.83;99046.56;5042363;28;20052;-80
2021/11/02 02:36:03;;;;;;;19.05;11.98;;;;;;;10.58;81.64;99052.97;5020616;28;20554;-79
2021/11/02 02:38:59;;;;;;;18.00;11.80;;;;;;;10.48;82.06;99039.94;5018615;28;20053;-79
2021/11/02 02:41:46;;;;;;;15.45;11.98;;;;;;;10.48;82.13;99045.38;5041475;28;20518;-79
2021/11/02 02:44:33;;;;;;;21.23;11.23;;;;;;;10.37;82.51;99057.94;5037997;28;20064;-79
2021/11/02 02:47:20;;;;;;;16.02;11.43;;;;;;;10.22;83.08;99044.03;5040619;28;20049;-79
2021/11/02 02:50:07;;;;;;;16.52;12.00;;;;;;;10.22;83.33;99054.13;5026295;28;20053;-78
2021/11/02 02:52:56;;;;;;;16.90;11.88;;;;;;;10.22;83.56;99063.06;5018466;28;20053;-78
2021/11/02 02:55:43;;;;;;;16.05;10.75;;;;;;;10.16;83.27;99063.69;5028921;28;20439;-79
2021/11/02 02:58:38;;;;;;;15.02;11.05;;;;;;;10.25;82.59;99073.25;5028756;28;20049;-79
2021/11/02 03:01:25;;;;;;;13.45;10.85;;;;;;;10.25;82.40;99075.97;5036774;28;20048;-79
2021/11/02 03:04:22;;;;;;;15.20;10.77;;;;;;;10.22;82.01;99076.66;5022237;28;20048;-79
2021/11/02 03:07:07;;;;;;;12.35;9.25;;;;;;;10.24;82.26;99079.81;5023882;28;20044;-79
2021/11/02 03:09:54;;;;;;;14.38;10.48;;;;;;;10.24;81.94;99074.38;5024613;28;20052;-78
2021/11/02 03:12:43;;;;;;;14.98;11.20;;;;;;;10.23;82.63;99077.44;5026107;28;20056;-79
2021/11/02 03:15:55;;;;;;;17.80;12.43;;;;;;;10.13;82.70;99073.31;5041944;28;20048;-78
2021/11/02 05:12:51;;;;;;;12.05;7.53;;;;;;;9.95;80.96;99156.28;5015785;28;20587;-81
2021/11/02 06:30:04;;;;;;;7.57;5.75;;;;;;;10.35;78.69;99223.25;5012306;28;20526;-76
2021/11/02 06:33:01;;;;;;;9.73;7.18;;;;;;;10.29;78.55;99228.16;5011361;28;20451;-77
2021/11/02 06:54:37;;;;;;;8.57;5.75;;;;;;;10.57;77.18;99277.00;4994068;28;20053;-77
2021/11/02 07:18:26;;;;;;;5.22;3.85;;;;;;;10.52;77.16;99334.34;5005499;28;20053;-77
2021/11/02 07:21:19;;;;;;;5.60;4.90;;;;;;;10.61;76.78;99345.84;5016688;28;20045;-76
2021/11/02 07:24:13;;;;;;;9.27;6.95;;;;;;;10.66;77.48;99345.59;5004897;28;20053;-78
2021/11/02 08:48:33;;;;;;;13.32;7.03;;;;;;;11.52;76.57;99428.19;5019206;28;20053;-76
2021/11/02 08:51:18;;;;;;;15.27;4.78;;;;;;;11.55;76.28;99427.47;5022412;28;20048;-75
2021/11/02 08:54:03;;;;;;;12.45;5.00;;;;;;;11.61;76.54;99434.25;5014073;28;20526;-76
2021/11/02 08:56:48;;;;;;;7.38;4.90;;;;;;;11.71;75.92;99439.16;5022125;28;20057;-76
2021/11/02 08:59:33;;;;;;;13.60;6.53;;;;;;;11.72;75.79;99435.28;5011900;28;20048;-77
2021/11/02 09:02:25;;;;;;;12.98;7.07;;;;;;;11.78;75.23;99444.78;5013822;28;20518;-76
2021/11/02 09:05:14;;;;;;;9.02;6.18;;;;;;;11.83;75.45;99439.06;5017918;28;20052;-76
2021/11/02 09:07:59;;;;;;;17.60;7.50;;;;;;;11.92;75.36;99439.66;5019239;28;20060;-78
2021/11/02 09:10:46;;;;;;;8.18;5.57;;;;;;;11.86;74.17;99441.06;5021118;28;20052;-76
2021/11/02 09:13:33;;;;;;;7.88;6.20;;;;;;;11.90;75.15;99449.31;5021149;28;20448;-76
2021/11/02 09:16:19;;;;;;;7.55;5.22;;;;;;;11.99;71.42;99439.00;5011243;28;20411;-77
2021/11/02 09:19:05;;;;;;;10.88;4.93;;;;;;;11.97;71.81;99439.38;5008802;28;20064;-77
2021/11/02 09:21:49;;;;;;;10.48;5.55;;;;;;;11.91;71.74;99445.47;5024792;28;20056;-77
2021/11/02 09:24:35;;;;;;;7.55;5.35;;;;;;;11.93;72.44;99446.69;5022329;28;20053;-78
2021/11/02 09:27:20;;;;;;;16.08;6.50;;;;;;;12.01;72.49;99453.09;5013590;28;20056;-78
2021/11/02 09:30:08;;;;;;;11.02;6.57;;;;;;;12.01;71.99;99463.97;5012111;28;20069;-79
2021/11/02 09:32:56;;;;;;;17.23;6.18;;;;;;;12.09;73.29;99465.72;5018104;28;20054;-77
2021/11/02 09:35:42;;;;;;;9.07;6.68;;;;;;;12.12;72.93;99465.00;5020298;28;20053;-77
2021/11/02 09:38:40;;;;;;;9.77;6.10;;;;;;;12.24;72.75;99461.38;5011264;28;20040;-77
2021/11/02 09:41:35;;;;;;;12.07;5.47;;;;;;;12.33;71.04;99456.50;5019500;28;20049;-77
2021/11/02 09:44:42;;;;;;;9.05;5.13;;;;;;;12.36;71.54;99466.69;5019126;28;20049;-77
2021/11/02 09:48:00;;;;;;;9.73;5.28;;;;;;;12.45;70.40;99461.81;5021649;28;20049;-77
2021/11/02 09:51:09;;;;;;;11.18;6.10;;;;;;;12.70;70.90;99457.66;5020682;28;20053;-79
2021/11/02 09:54:24;;;;;;;11.15;7.68;;;;;;;12.68;71.73;99459.97;5022428;28;20427;-78
2021/11/02 09:57:31;;;;;;;12.23;6.30;;;;;;;12.91;68.57;99461.94;5012897;28;20049;-79
2021/11/02 10:00:56;;;;;;;14.45;5.95;;;;;;;12.92;68.33;99447.16;5021853;28;20041;-77
2021/11/02 10:03:46;;;;;;;13.18;6.28;;;;;;;12.97;67.69;99450.38;5026025;28;20125;-78
2021/11/02 10:06:40;;;;;;;10.48;5.43;;;;;;;12.83;67.76;99448.19;5022166;28;20060;-77
2021/11/02 10:09:34;;;;;;;7.35;4.32;;;;;;;12.82;68.22;99453.97;5019281;28;20045;-78
2021/11/02 10:12:22;;;;;;;6.35;4.60;;;;;;;13.00;70.07;99454.34;5017846;28;20060;-77
2021/11/02 10:15:43;;;;;;;11.50;5.15;;;;;;;13.29;69.76;99453.72;5039573;23;20052;-65
2021/11/02 10:19:17;;;;;;;8.25;5.63;;;;;;;13.30;68.44;99457.22;5006351;28;20069;-64
2021/11/02 10:22:16;;;;;;;9.10;6.20;;;;;;;13.46;69.94;99474.28;4967885;28;20049;-64
2021/11/02 10:25:04;;;;;;;12.27;6.40;;;;;;;13.40;68.90;99471.06;4998556;28;20073;-63
2021/11/02 10:28:14;;;;;;;11.13;6.90;;;;;;;13.37;68.70;99469.06;5013588;28;20047;-63
2021/11/02 10:31:12;;;;;;;10.98;6.18;;;;;;;13.40;69.82;99467.56;4983594;28;20057;-63
2021/11/02 10:34:02;;;;;;;11.18;6.80;;;;;;;13.42;70.41;99473.41;5013441;28;20045;-63
2021/11/02 10:37:16;;;;;;;10.18;7.10;;;;;;;13.43;70.55;99473.06;5011887;28;20074;-63
2021/11/02 10:40:11;;;;;;;10.73;6.38;;;;;;;13.53;71.05;99472.44;5004376;28;20079;-63
2021/11/02 10:43:04;;;;;;;9.48;6.90;;;;;;;13.46;72.09;99466.84;4982877;28;20069;-63
2021/11/02 10:45:56;;;;;;;10.98;7.80;;;;;;;13.40;71.35;99462.88;5016913;28;20553;-63
2021/11/02 10:48:49;;;;;;;11.18;7.28;;;;;;;13.32;71.57;99455.69;5014173;28;20403;-63
2021/11/02 10:51:42;;;;;;;10.10;6.45;;;;;;;13.32;71.55;99461.16;4997500;28;20053;-63
2021/11/02 10:54:41;;;;;;;11.30;7.28;;;;;;;13.37;71.41;99474.50;4995690;28;20057;-63
2021/11/02 10:58:03;;;;;;;12.10;6.80;;;;;;;13.45;70.63;99475.44;5015367;28;20044;-63
2021/11/02 11:00:50;;;;;;;7.00;5.57;;;;;;;13.57;68.80;99481.50;5017224;28;20052;-63
2021/11/02 11:03:37;;;;;;;6.45;5.07;;;;;;;13.64;67.96;99486.28;4997936;28;20695;-63
2021/11/02 11:06:24;;;;;;;7.80;6.03;;;;;;;13.63;68.72;99482.75;5012773;28;20407;-63
2021/11/02 11:09:12;;;;;;;7.32;5.13;;;;;;;13.75;69.28;99484.53;5013020;28;20049;-63
2021/11/02 11:12:00;;;;;;;8.23;5.20;;;;;;;13.93;68.47;99490.25;5012983;28;20056;-63
2021/11/02 11:14:46;;;;;;;9.75;6.68;;;;;;;14.08;67.91;99494.78;5012825;28;20410;-63
2021/11/02 11:17:33;;;;;;;9.70;4.30;;;;;;;14.20;66.69;99500.03;5015241;28;20040;-63
2021/11/02 11:20:21;;;;;;;7.82;5.20;;;;;;;14.37;66.83;99499.53;5015560;28;20391;-63
2021/11/02 11:23:11;;;;;;;7.95;4.90;;;;;;;14.41;66.54;99496.84;5001165;28;20056;-63
2021/11/02 11:26:05;;;;;;;7.18;5.10;;;;;;;14.45;65.99;99497.69;5010567;28;20053;-63
2021/11/02 11:28:53;;;;;;;4.80;3.83;;;;;;;14.29;66.51;99484.16;5017348;28;20598;-63
2021/11/02 11:31:39;;;;;;;7.05;4.53;;;;;;;14.24;66.92;99487.19;5032370;28;20052;-63
2021/11/02 11:34:35;;;;;;;9.63;5.32;;;;;;;14.38;67.22;99481.94;5032764;28;20048;-63
2021/11/02 11:37:28;;;;;;;10.23;5.45;;;;;;;14.38;66.60;99481.94;5032786;28;20041;-63
2021/11/02 11:40:18;;;;;;;10.38;5.88;;;;;;;14.46;65.95;99475.44;5008110;28;20068;-63
2021/11/02 11:43:07;;;;;;;6.97;5.10;;;;;;;14.49;66.49;99480.16;5030316;28;20053;-63
2021/11/02 11:45:54;;;;;;;6.80;4.88;;;;;;;14.67;65.28;99491.31;5005751;28;20053;-63
2021/11/02 11:48:42;;;;;;;8.00;5.22;;;;;;;14.65;65.63;99499.09;5023094;28;20426;-63
2021/11/02 11:51:30;;;;;;;9.57;5.80;;;;;;;14.39;64.76;99497.22;4977829;28;20142;-61
2021/11/02 11:54:15;;;;;;;12.43;6.90;;;;;;;14.39;65.97;99493.69;4995823;28;20044;-61
2021/11/02 11:57:00;;;;;;;;;;;;;;;14.46;65.80;99494.56;4997619;28;20056;-61
2021/11/02 11:59:45;;;;;;;11.43;6.30;;;;;;;14.48;65.90;99492.25;5012107;28;19917;-61
2021/11/02 12:02:34;;;;;;;11.30;7.15;;;;;;;14.39;65.03;99491.75;5011506;28;20041;-61
2021/11/02 12:05:21;;;;;;;11.07;7.47;;;;;;;14.38;65.18;99492.88;5011423;28;20061;-61
2021/11/02 12:08:31;;;;;;;10.38;7.05;;;;;;;14.37;66.11;99491.34;5011957;28;20057;-61
2021/11/02 12:11:21;;;;;;;10.25;7.38;;;;;;;14.39;66.32;99493.69;5004782;28;20405;-61
2021/11/02 12:14:21;;;;;;;13.57;7.82;;;;;;;14.40;66.67;99490.59;5026236;28;20061;-61
2021/11/02 12:17:07;;;;;;;14.50;8.20;;;;;;;14.41;66.79;99494.09;5031245;28;20044;-61
2021/11/02 12:20:00;;;;;;;12.68;8.68;;;;;;;14.46;67.19;99502.00;5018119;28;20056;-61
2021/11/02 12:22:54;;;;;;;13.80;8.60;;;;;;;14.55;67.10;99500.56;5018365;28;20040;-61
2021/11/02 12:25:49;;;;;;;15.32;8.20;;;;;;;14.62;67.33;99510.00;5004295;28;20044;-61
2021/11/02 12:28:35;;;;;;;29.08;9.13;;;;;;;14.63;68.75;99504.16;5031714;28;20540;-61
2021/11/02 12:31:25;;;;;;;18.60;9.68;;;;;;;14.97;67.38;99503.03;5016479;28;20049;-61
2021/11/02 12:34:15;;;;;;;14.07;8.38;;;;;;;15.05;67.17;99500.34;5014673;28;20050;-61
2021/11/02 12:37:08;;;;;;;15.85;8.45;;;;;;;15.10;66.37;99503.53;5023248;28;20509;-61
2021/11/02 12:39:54;;;;;;;18.92;8.70;;;;;;;15.15;66.06;99505.16;5027182;28;20048;-61
2021/11/02 12:42:39;;;;;;;;;;;;;;;15.07;65.77;99504.31;5030111;28;20517;-61
2021/11/02 12:45:26;;;;;;;21.20;9.13;;;;;;;15.22;66.02;99500.56;5015835;28;19913;-61
2021/11/02 12:48:13;;;;;;;11.55;7.38;;;;;;;15.48;65.07;99496.09;5017495;28;20048;-61
2021/11/02 12:50:59;;;;;;;18.45;8.45;;;;;;;15.79;63.79;99501.91;5029864;28;20048;-61
2021/11/02 12:53:47;;;;;;;14.35;9.15;;;;;;;15.88;63.88;99500.78;5026613;28;20053;-61
2021/11/02 12:56:34;;;;;;;16.02;8.63;;;;;;;16.11;63.56;99495.84;5023344;28;20509;-61
2021/11/02 12:59:22;;;;;;;13.38;8.52;;;;;;;16.33;62.68;99492.06;5019603;28;20509;-61
2021/11/02 13:02:22;;;;;;;15.68;9.38;;;;;;;16.39;62.29;99497.97;5034977;28;20052;-61
2021/11/02 13:05:27;;;;;;;14.77;8.93;;;;;;;16.42;62.42;99499.94;5030455;28;20060;-61
2021/11/02 13:08:19;;;;;;;18.75;9.02;;;;;;;16.34;62.03;99496.38;5025770;28;20060;-61
2021/11/02 13:11:10;;;;;;;17.95;10.20;;;;;;;16.65;62.41;99506.78;5035038;28;20068;-61
2021/11/02 13:14:07;;;;;;;16.63;9.07;;;;;;;16.82;61.83;99508.00;5019867;28;20053;-61
2021/11/02 13:17:05;;;;;;;15.52;9.00;;;;;;;16.95;61.18;99498.25;5035087;28;20052;-61
2021/11/02 13:19:54;;;;;;;19.10;10.00;;;;;;;17.09;60.89;99500.25;5034546;28;20048;-61
2021/11/02 13:22:51;;;;;;;18.00;10.50;;;;;;;23.25;44.92;99516.59;5034529;28;20060;-69
2021/11/02 13:25:41;;;;;;;14.88;9.02;;;;;;;26.69;35.52;99517.78;5034449;28;20439;-67
2021/11/02 13:28:31;;;;;;;13.23;8.65;;;;;;;28.25;32.23;99522.84;5019674;28;20402;-66
2021/11/02 13:31:33;;;;;;;13.27;7.88;;;;;;;28.43;31.08;99526.47;5034488;28;20049;-64
2021/11/02 13:34:33;;;;;;;18.73;8.32;;;;;;;28.34;31.23;99531.28;5019538;28;20517;-64
2021/11/02 13:37:18;;;;;;;16.10;7.18;;;;;;;28.26;31.41;99530.00;5034300;28;20053;-64
2021/11/02 13:40:03;;;;;;;14.23;8.00;;;;;;;26.34;33.97;99517.81;5017151;28;20518;-64
2021/11/02 13:42:52;;;;;;;12.43;8.20;;;;;;;25.96;35.11;99528.25;5023260;28;20048;-64
2021/11/02 13:45:37;;;;;;;11.95;7.82;;;;;;;27.77;31.81;99525.22;5023231;28;20064;-64
2021/11/02 13:48:22;;;;;;;9.13;6.90;;;;;;;28.05;30.79;99524.03;5006058;28;20045;-64
2021/11/02 13:51:10;;;;;;;9.18;6.30;;;;;;;29.11;29.51;99529.81;5025146;28;20072;-64
2021/11/02 13:53:55;;;;;;;15.60;5.30;;;;;;;30.52;26.74;99538.19;5022201;28;20060;-64
2021/11/02 13:56:43;;;;;;;11.70;5.88;;;;;;;28.90;28.94;99542.75;5021467;28;20399;-64
2021/11/02 13:59:28;;;;;;;7.53;4.88;;;;;;;30.25;26.96;99549.59;5018976;28;20057;-64
2021/11/02 14:02:13;;;;;;;8.70;5.47;;;;;;;28.67;29.23;99543.38;5015459;28;20048;-64
2021/11/02 14:05:00;;;;;;;6.95;5.57;;;;;;;28.95;29.51;99540.59;5025686;28;20044;-64
2021/11/02 14:07:45;;;;;;;8.63;5.07;;;;;;;29.62;28.31;99549.44;5013444;28;20052;-64
2021/11/02 14:10:30;;;;;;;11.75;5.95;;;;;;;27.65;30.33;99534.50;5020943;28;20109;-63
2021/11/02 14:13:15;;;;;;;15.15;5.63;;;;;;;28.39;30.49;99548.19;5033744;28;20072;-64
2021/11/02 14:16:01;;;;;;;9.20;6.65;;;;;;;27.92;30.00;99542.19;5033188;28;20525;-64
2021/11/02 14:18:46;;;;;;;10.02;6.32;;;;;;;26.59;32.55;99541.25;5033632;28;20068;-64
2021/11/02 14:21:48;;;;;;;7.97;5.78;;;;;;;26.41;32.29;99543.91;5033516;28;20052;-64
2021/11/02 14:24:40;;;;;;;6.60;4.30;;;;;;;25.23;34.47;99541.28;5033546;28;20505;-64
2021/11/02 14:27:43;;;;;;;5.63;4.35;;;;;;;25.40;34.05;99545.53;5033459;28;20045;-64
2021/11/02 14:30:31;;;;;;;6.47;4.25;;;;;;;25.30;34.31;99546.63;5033775;28;20044;-64
2021/11/02 14:33:17;;;;;;;6.60;4.18;;;;;;;24.75;35.84;99544.22;5033278;28;20403;-64
2021/11/02 14:36:04;;;;;;;7.05;4.65;;;;;;;23.77;37.25;99544.34;5031997;28;20056;-64
2021/11/02 14:38:49;;;;;;;5.70;4.82;;;;;;;24.15;36.78;99541.03;5033330;28;20399;-64
2021/11/02 14:41:36;;;;;;;6.45;4.68;;;;;;;23.92;36.85;99547.59;5033328;28;20414;-64
2021/11/02 14:44:26;;;;;;;7.43;4.35;;;;;;;23.45;37.87;99538.78;5018242;28;20045;-64
2021/11/02 14:47:32;;;;;;;10.55;5.18;;;;;;;23.30;38.87;99546.59;5032878;28;20048;-64
2021/11/02 14:50:36;;;;;;;10.50;4.90;;;;;;;23.79;37.84;99547.47;5033119;28;20041;-64
2021/11/02 14:53:24;;;;;;;7.43;4.75;;;;;;;22.07;40.96;99545.00;5011797;28;20048;-64
2021/11/02 14:56:18;;;;;;;7.10;4.88;;;;;;;21.63;41.99;99537.78;5012810;28;20053;-63
2021/11/02 14:59:05;;;;;;;8.45;4.93;;;;;;;20.63;44.10;99547.72;5028509;28;20052;-63
2021/11/02 15:02:02;;;;;;;7.35;4.80;;;;;;;19.82;45.76;99536.22;5017870;28;20411;-64
2021/11/02 15:04:53;;;;;;;5.57;4.40;;;;;;;19.88;45.11;99531.06;4993366;28;20443;-63
2021/11/02 15:07:43;;;;;;;6.28;4.18;;;;;;;20.15;44.39;99534.78;4983061;28;20122;-64
2021/11/02 15:10:28;;;;;;;5.65;4.50;;;;;;;18.95;46.50;99530.03;5016362;28;20052;-64
2021/11/02 15:13:19;;;;;;;6.95;5.07;;;;;;;17.57;49.94;99532.94;5014044;28;20045;-63
2021/11/02 15:16:05;;;;;;;7.30;4.85;;;;;;;17.11;51.82;99544.63;5020614;28;20056;-63
2021/11/02 15:18:53;;;;;;;9.38;5.53;;;;;;;17.30;51.92;99536.03;5013835;28;20052;-63
2021/11/02 15:21:43;;;;;;;7.90;5.07;;;;;;;17.31;52.05;99537.59;5012545;28;20049;-63
2021/11/02 15:24:32;;;;;;;8.35;5.05;;;;;;;17.09;53.26;99544.19;5012820;28;20045;-63
2021/11/02 15:27:24;;;;;;;11.73;6.50;;;;;;;16.65;54.32;99541.66;5012647;28;20053;-63
2021/11/02 15:30:13;;;;;;;8.30;5.75;;;;;;;16.30;55.74;99549.66;5018618;28;20037;-63
2021/11/02 15:32:58;;;;;;;14.57;7.20;;;;;;;15.93;57.10;99539.59;5012732;28;20049;-63
2021/11/02 15:35:43;;;;;;;9.82;7.20;;;;;;;15.86;57.57;99545.00;5012321;28;20049;-63
2021/11/02 15:38:28;;;;;;;10.10;7.32;;;;;;;15.66;58.32;99560.88;5012556;28;20056;-63
2021/11/02 15:41:22;;;;;;;;;;;;;;;15.50;59.35;99556.78;5012931;28;20399;-63
2021/11/02 15:44:09;;;;;;;11.23;7.22;;;;;;;15.37;60.21;99557.06;5012495;28;19914;-64
2021/11/02 15:46:54;;;;;;;10.98;7.20;;;;;;;15.30;60.62;99565.19;5006449;28;20049;-63
2021/11/02 15:49:39;;;;;;;;;;;;;;;15.23;61.09;99562.38;5007655;28;20049;-63
2021/11/02 15:52:26;;;;;;;15.93;7.23;;;;;;;15.03;61.57;99562.91;5004049;28;19913;-63
2021/11/02 15:55:21;;;;;;;10.45;7.43;;;;;;;14.95;62.31;99559.28;5009297;28;20061;-63
2021/11/02 15:58:08;;;;;;;9.93;7.55;;;;;;;14.85;62.51;99568.94;5012252;28;20121;-63
2021/11/02 16:00:53;;;;;;;11.63;7.47;;;;;;;14.76;63.25;99573.13;4995765;28;20049;-64
2021/11/02 16:03:39;;;;;;;;;;;;;;;14.69;63.29;99573.81;5008834;28;20057;-63
2021/11/02 16:06:23;;;;;;;15.57;8.82;;;;;;;14.52;63.97;99577.91;5004688;28;19913;-63
2021/11/02 16:09:08;;;;;;;;;;;;;;;14.51;64.18;99581.00;5017431;28;20092;-64
2021/11/02 16:11:54;;;;;;;17.38;9.95;;;;;;;14.44;64.32;99587.16;5012261;28;19917;-63
2021/11/02 16:14:48;;;;;;;16.25;9.77;;;;;;;14.38;64.91;99588.63;5016164;28;20075;-64
2021/11/02 16:17:48;;;;;;;18.40;10.93;;;;;;;14.30;65.12;99602.53;4992444;28;20053;-63
2021/11/02 16:20:38;;;;;;;15.93;10.05;;;;;;;14.20;65.57;99598.47;5006008;28;20045;-63
2021/11/02 16:23:25;;;;;;;18.13;10.65;;;;;;;14.20;65.91;99603.94;5004674;28;20438;-63
2021/11/02 16:26:25;;;;;;;15.98;9.70;;;;;;;14.14;65.77;99608.13;5021941;28;20100;-63
2021/11/02 16:29:13;;;;;;;18.25;10.80;;;;;;;14.10;65.79;99612.75;5021713;28;20049;-63
2021/11/02 16:32:18;;;;;;;15.95;9.38;;;;;;;13.95;66.43;99619.94;5022427;28;20054;-63
2021/11/02 16:35:04;;;;;;;16.10;9.30;;;;;;;13.86;67.08;99622.13;5037897;23;20044;-64
2021/11/02 16:37:48;;;;;;;;;;;;;;;13.86;67.58;99622.13;5010818;28;20061;-64
2021/11/02 16:40:34;;;;;;;14.50;7.50;;;;;;;13.82;67.94;99626.72;5011812;28;20290;-64
2021/11/02 16:43:30;;;;;;;;;;;;;;;13.80;68.31;99628.25;4997284;28;20057;-64
2021/11/02 16:46:24;;;;;;;20.27;10.02;;;;;;;13.79;68.38;99640.31;5011679;28;20367;-64
2021/11/02 16:49:20;;;;;;;15.65;9.82;;;;;;;13.60;69.13;99649.34;5011737;28;20049;-65
2021/11/02 16:52:24;;;;;;;11.68;7.82;;;;;;;13.62;69.06;99647.81;5011586;28;20049;-64
2021/11/02 16:55:12;;;;;;;31.73;18.88;;;;;;;13.98;71.10;99640.25;4996829;28;20045;-64
2021/11/02 16:58:20;;;;;;;29.25;16.30;;;;;;;14.25;70.83;99644.66;5011550;28;20053;-64
2021/11/02 17:01:15;;;;;;;27.45;16.30;;;;;;;14.43;70.30;99653.16;5015231;28;20049;-63
2021/11/02 17:04:18;;;;;;;25.90;13.45;;;;;;;14.56;69.54;99665.50;5015132;28;20060;-62
2021/11/02 17:07:12;;;;;;;30.02;17.13;;;;;;;14.67;69.22;99663.72;5015034;28;20045;-63
2021/11/02 17:10:27;;;;;;;24.77;15.88;;;;;;;14.74;68.15;99663.81;5015175;28;20052;-64
2021/11/02 17:13:23;;;;;;;16.90;12.03;;;;;;;14.84;67.70;99662.38;5000122;28;20057;-63
2021/11/02 17:16:15;;;;;;;23.20;13.88;;;;;;;14.87;67.47;99662.44;5014826;28;20279;-63
2021/11/02 17:19:06;;;;;;;134.90;33.25;;;;;;;14.94;67.79;99659.00;5014918;28;20045;-63
2021/11/02 17:21:53;;;;;;;157.75;37.40;;;;;;;15.02;67.70;99660.69;5014857;28;20034;-63
2021/11/02 17:24:38;;;;;;;118.15;32.10;;;;;;;15.05;69.02;99665.41;5014997;28;20050;-62
2021/11/02 17:27:23;;;;;;;164.82;42.33;;;;;;;15.10;70.43;99669.78;5000002;28;20072;-64
2021/11/02 17:30:20;;;;;;;135.90;37.83;;;;;;;15.13;71.25;99669.84;5014720;28;20049;-63
2021/11/02 17:33:06;;;;;;;100.60;33.72;;;;;;;15.14;72.39;99673.34;5014540;28;20052;-63
2021/11/02 17:35:51;;;;;;;88.80;27.40;;;;;;;15.15;72.61;99675.72;5014412;28;20038;-63
2021/11/02 17:38:37;;;;;;;49.83;19.08;;;;;;;15.15;71.05;99680.41;5014536;28;20049;-63
2021/11/02 17:41:22;;;;;;;39.72;18.10;;;;;;;15.15;70.63;99686.69;5014406;28;20048;-65
2021/11/02 17:44:07;;;;;;;48.10;17.67;;;;;;;15.14;70.83;99690.56;5014401;28;20120;-63
2021/11/02 17:46:54;;;;;;;;;;;;;;;15.15;70.65;99692.16;5015508;28;20061;-64
2021/11/02 17:49:42;;;;;;;28.38;13.00;;;;;;;15.15;69.06;99703.13;5014276;28;20374;-64
2021/11/02 17:52:27;;;;;;;21.20;10.52;;;;;;;15.13;67.86;99699.19;5014284;28;20049;-64
2021/11/02 17:55:13;;;;;;;40.13;15.27;;;;;;;15.08;69.20;99697.56;5014111;28;20056;-64
2021/11/02 17:58:00;;;;;;;17.75;10.48;;;;;;;15.07;68.70;99697.91;5020816;28;20049;-64
2021/11/02 18:00:46;;;;;;;28.95;13.77;;;;;;;15.06;69.09;99713.56;5014092;28;20045;-64
2021/11/02 18:03:35;;;;;;;20.70;11.07;;;;;;;15.06;68.80;99710.03;5013983;28;20061;-64
2021/11/02 18:06:21;;;;;;;33.53;16.60;;;;;;;15.06;69.08;99721.75;5014046;28;20048;-64
2021/11/02 18:09:07;;;;;;;21.23;10.90;;;;;;;15.03;68.60;99728.00;5013598;28;20427;-64
2021/11/02 18:11:52;;;;;;;20.42;11.80;;;;;;;15.03;68.58;99741.69;5014143;28;20068;-64
2021/11/02 18:14:37;;;;;;;;;;;;;;;15.06;68.01;99740.13;5014464;28;20673;-64
2021/11/02 18:17:22;;;;;;;20.67;10.70;;;;;;;15.05;67.59;99735.81;5013650;28;19921;-63
2021/11/02 18:20:08;;;;;;;26.30;12.80;;;;;;;15.02;67.76;99731.09;5013444;28;20129;-63
2021/11/02 18:22:54;;;;;;;20.13;9.57;;;;;;;14.99;67.31;99730.66;5013563;28;20057;-64
2021/11/02 18:25:40;;;;;;;22.50;11.68;;;;;;;14.99;67.73;99741.59;5013495;28;20626;-64
2021/11/02 18:28:24;;;;;;;;;;;;;;;15.02;68.63;99739.31;5014284;28;20406;-64